LMML/MLA METAR and TAF weather

Enter ICAO airport designator
Station Type Date Time Source
LMML METAR 2018/12/19 10:15 UTC NOAA

LMML 191015Z 33012KT 9999 FEW029 15/08 Q1026 NOSIG


Station Type Date Time Source
LMML Decoded METAR 2018/12/19 10:15 UTC NOAA

Luqa, Malta (LMML) 35-51N 014-29E 91M
Dec 19, 2018 - 05:15 AM EST / 2018.12.19 1015 UTC
Wind: from the NNW (330 degrees) at 14 MPH (12 KT):0
Visibility: greater than 7 mile(s):0
Sky conditions: mostly clear
Temperature: 59 F (15 C)
Dew Point: 46 F (8 C)
Relative Humidity: 62%
Pressure (altimeter): 30.30 in. Hg (1026 hPa)
ob: LMML 191015Z 33012KT 9999 FEW029 15/08 Q1026 NOSIG
cycle: 10

Station Type Date Time Source
LMML TAF 2018/12/19 06:45 UTC NOAA

TAF TAF LMML 190500Z 1906/2006 31012KT 9999 FEW027
BECMG 1915/1918 25007KT


Example: see airport list